NCAR-RAP Real-Time Weather Data

Output produced by METARs form (18 December 2017  10:58 UTC)
found at http://weather.rap.ucar.edu/surface/
 
Conditions at: K4O4 observed 18 December 2017  10:35 UTC
Temperature: 7.0°C (45°F)
Dewpoint: 7.0°C (45°F) [RH = 100%]
Pressure (altimeter): 30.17 inches Hg (1021.8 mb)
Winds: calm
Visibility: 4 miles (6 km)
Ceiling: 700 feet AGL
Clouds: overcast cloud deck at 700 feet AGL
Present Weather: automated observation with no human augmentation;
there may or may not be significant weather present at this time
K4O4 181035Z AUTO 00000KT 4SM OVC007 07/07 A3017 RMK AO2